Iona Mcallister — WDD4840 — position and weather

sailwx.info

Track history (hours):
 
Tides and Currents Weather Stations Pressure Air Temp Water Temp Dewpoint Dewpoint Depression Visibility Wind Speed Wind Dir Waves Ship Positions

Iona Mcallister

Owner: McAllister Towing & Transportation Co. Inc., Staten Island, NY. More information available from US FCC via Universal Licensing System and Coast Guard Vessel Documentation Center.

Last reported at 2017-Jan-20 18:33 UTC. Time now 2017-Jan-20 20:12 UTC.
Position N 41°37' W 071°24'.

Length 36 m; draft 3 m.

Type: Towing. MMSI: 367149890.

Date/timePositionNaut miles runAvg speedWind from/ knotsBaromVisibWave heightAir tempDewpointWater temp
2017-Jan-20 18:33N 41°37' W 071°24'0 0.0
2017-Jan-20 14:27N 41°37' W 071°24'2 1.8
2017-Jan-20 13:33N 41°35' W 071°24'1 0.8
2017-Jan-20 12:33N 41°36' W 071°24'0 0.2
2017-Jan-20 11:33N 41°36' W 071°24'0 0.3
2017-Jan-20 10:33N 41°36' W 071°24'1 0.4
2017-Jan-20 07:33N 41°35' W 071°24'8 8.4
2017-Jan-20 06:33N 41°43' W 071°21'5 4.4
2017-Jan-20 05:24N 41°48' W 071°23'1 1.4
2017-Jan-20 04:33N 41°49' W 071°24'0 0.0
2017-Jan-20 03:29N 41°49' W 071°24'0 0.0
2017-Jan-20 02:32N 41°49' W 071°24'0 0.0
2017-Jan-20 01:34N 41°49' W 071°24'0 0.0
2017-Jan-20 00:24N 41°49' W 071°24'0 0.0
2017-Jan-19 23:33N 41°49' W 071°24'7 6.7
2017-Jan-19 22:33N 41°43' W 071°20'6 0.2
2017-Jan-18 18:11N 41°38' W 071°16'4 6.9
2017-Jan-18 17:33N 41°42' W 071°19'8 3.9
2017-Jan-18 15:28N 41°49' W 071°24'2 0.1
2017-Jan-18 01:27N 41°47' W 071°23'1 0.1
2017-Jan-17 18:33N 41°48' W 071°23'1 1.0
2017-Jan-17 17:33N 41°47' W 071°22'2 2.3
2017-Jan-17 16:32N 41°49' W 071°24'0 0.0
2017-Jan-17 15:32N 41°49' W 071°24'0 0.0
2017-Jan-17 14:33N 41°49' W 071°24'0 0.0
2017-Jan-17 13:33N 41°49' W 071°24'0 0.1
2017-Jan-17 12:30N 41°49' W 071°24'0 0.1
2017-Jan-17 11:33N 41°49' W 071°24'0 0.0
2017-Jan-17 10:33N 41°49' W 071°24'0 0.0
2017-Jan-17 09:33N 41°49' W 071°24'0 0.0
2017-Jan-17 08:33N 41°49' W 071°24'0 0.0
2017-Jan-17 07:33N 41°49' W 071°24'0 0.0
2017-Jan-17 06:33N 41°49' W 071°24'0 0.0
2017-Jan-17 05:34N 41°49' W 071°24'0 0.0
2017-Jan-17 04:33N 41°49' W 071°24'0 0.0
2017-Jan-17 03:32N 41°49' W 071°24'0 0.0
2017-Jan-17 02:33N 41°49' W 071°24'0 0.0
2017-Jan-17 01:31N 41°49' W 071°24'2 2.4
2017-Jan-17 00:33N 41°47' W 071°22'1 0.7
2017-Jan-16 23:33N 41°48' W 071°23'2 0.7
2017-Jan-16 21:25N 41°49' W 071°24'0 0.0
2017-Jan-16 15:14N 41°49' W 071°24'0 0.0
2017-Jan-16 13:03N 41°49' W 071°24'0 0.0
2017-Jan-16 12:32N 41°49' W 071°24'0 0.0
2017-Jan-16 11:31N 41°49' W 071°24'0 0.0
2017-Jan-16 10:33N 41°49' W 071°24'1 0.5
2017-Jan-16 09:19N 41°48' W 071°24'1 0.8
2017-Jan-16 08:33N 41°49' W 071°24'0 0.0
2017-Jan-16 07:33N 41°49' W 071°24'0 0.0
2017-Jan-16 06:33N 41°49' W 071°24'0 0.0
2017-Jan-16 05:34N 41°49' W 071°24'0 0.0
2017-Jan-16 04:31N 41°49' W 071°24'1 0.9
2017-Jan-16 03:33N 41°48' W 071°24'1 0.8
2017-Jan-16 02:33N 41°49' W 071°24'0 0.0
2017-Jan-16 01:33N 41°49' W 071°24'0 0.0
2017-Jan-16 00:33N 41°49' W 071°24'0 0.0
2017-Jan-15 23:31N 41°49' W 071°24'0 0.0
2017-Jan-15 22:31N 41°49' W 071°24'0 0.0
2017-Jan-15 21:33N 41°49' W 071°24'0 0.0
2017-Jan-15 20:29N 41°49' W 071°24'0 0.0
2017-Jan-15 19:32N 41°49' W 071°24'0 0.0
2017-Jan-15 18:33N 41°49' W 071°24'0 0.0
2017-Jan-15 17:33N 41°49' W 071°24'0 0.0
2017-Jan-15 16:31N 41°49' W 071°24'0 0.0
2017-Jan-15 11:06N 41°49' W 071°24'1 1.5
2017-Jan-15 10:34N 41°48' W 071°24'2 1.6
2017-Jan-15 09:34N 41°47' W 071°22'2 0.2
2017-Jan-14 23:11N 41°49' W 071°24'0 0.0
2017-Jan-14 22:32N 41°49' W 071°24'0 0.0
2017-Jan-14 21:33N 41°49' W 071°24'0 0.0
2017-Jan-14 20:25N 41°49' W 071°24'0 0.0
2017-Jan-14 19:28N 41°49' W 071°24'0 0.0
2017-Jan-14 18:32N 41°49' W 071°24'5 5.1
2017-Jan-14 17:33N 41°44' W 071°22'8 0.3
2017-Jan-13 11:15N 41°36' W 071°24'0 0.6
2017-Jan-13 10:33N 41°37' W 071°23'5 5.0
2017-Jan-13 09:33N 41°41' W 071°21'7 6.8
2017-Jan-13 08:29N 41°48' W 071°24'1 0.7
2017-Jan-13 07:33N 41°49' W 071°24'0 0.0
2017-Jan-13 06:33N 41°49' W 071°24'0 0.0
2017-Jan-13 05:34N 41°49' W 071°24'0 0.0
2017-Jan-13 04:25N 41°49' W 071°24'0 0.0
2017-Jan-13 03:33N 41°49' W 071°24'0 0.0
2017-Jan-13 02:33N 41°49' W 071°24'1 0.4
2017-Jan-13 00:31N 41°48' W 071°24'1 0.8
2017-Jan-12 23:33N 41°49' W 071°24'0 0.0
2017-Jan-12 20:27N 41°49' W 071°24'0 0.0
2017-Jan-12 19:33N 41°49' W 071°24'0 0.0
2017-Jan-12 18:23N 41°49' W 071°24'0 0.0
2017-Jan-12 16:28N 41°49' W 071°24'0 0.0
2017-Jan-12 15:33N 41°49' W 071°24'0 0.0
2017-Jan-12 12:32N 41°49' W 071°24'0 0.0
2017-Jan-12 11:33N 41°49' W 071°24'0 0.0
2017-Jan-12 10:26N 41°49' W 071°24'0 0.0
2017-Jan-12 02:28N 41°49' W 071°24'0 0.0
2017-Jan-11 23:09N 41°49' W 071°24'0 0.0
2017-Jan-11 18:22N 41°49' W 071°24'0 0.0
2017-Jan-11 17:33N 41°49' W 071°24'2 2.0
2017-Jan-11 16:31N 41°47' W 071°23'5 4.5
2017-Jan-11 15:27N 41°43' W 071°20'0 0.1
2017-Jan-11 14:33N 41°43' W 071°20'0 0.0
2017-Jan-11 13:33N 41°43' W 071°20'4 3.6
2017-Jan-11 12:33N 41°46' W 071°23'2 2.4
2017-Jan-11 11:32N 41°48' W 071°24'1 0.3
2017-Jan-11 08:33N 41°49' W 071°24'0 0.0
2017-Jan-11 07:33N 41°49' W 071°24'0 0.0
2017-Jan-11 06:33N 41°49' W 071°24'0 0.0
2017-Jan-11 05:32N 41°49' W 071°24'0 0.0
2017-Jan-11 04:33N 41°49' W 071°24'0 0.0
2017-Jan-11 03:33N 41°49' W 071°24'0 0.0
2017-Jan-11 02:33N 41°49' W 071°24'0 0.0
2017-Jan-11 01:33N 41°49' W 071°24'0 0.0
2017-Jan-11 00:33N 41°49' W 071°24'0 0.0
2017-Jan-10 23:31N 41°49' W 071°24'2 0.4
2017-Jan-10 20:06N 41°48' W 071°23'0 0.1
2017-Jan-10 19:15N 41°48' W 071°23'  
Track history (hours):
 
Tides and Currents Weather Stations Pressure Air Temp Water Temp Dewpoint Dewpoint Depression Visibility Wind Speed Wind Dir Waves Ship Positions

Iona Mcallister

Owner: McAllister Towing & Transportation Co. Inc., Staten Island, NY. More information available from US FCC via Universal Licensing System and Coast Guard Vessel Documentation Center.

Last reported at 2017-Jan-20 18:33 UTC. Time now 2017-Jan-20 20:12 UTC.
Position N 41°37' W 071°24'.

Length 36 m; draft 3 m.

Type: Towing. MMSI: 367149890.

Date/timePositionNaut miles runAvg speedWind from/ knotsBaromVisibWave heightAir tempDewpointWater temp
2017-Jan-20 18:33N 41°37' W 071°24'0 0.0
2017-Jan-20 14:27N 41°37' W 071°24'2 1.8
2017-Jan-20 13:33N 41°35' W 071°24'1 0.8
2017-Jan-20 12:33N 41°36' W 071°24'0 0.2
2017-Jan-20 11:33N 41°36' W 071°24'0 0.3
2017-Jan-20 10:33N 41°36' W 071°24'1 0.4
2017-Jan-20 07:33N 41°35' W 071°24'8 8.4
2017-Jan-20 06:33N 41°43' W 071°21'5 4.4
2017-Jan-20 05:24N 41°48' W 071°23'1 1.4
2017-Jan-20 04:33N 41°49' W 071°24'0 0.0
2017-Jan-20 03:29N 41°49' W 071°24'0 0.0
2017-Jan-20 02:32N 41°49' W 071°24'0 0.0
2017-Jan-20 01:34N 41°49' W 071°24'0 0.0
2017-Jan-20 00:24N 41°49' W 071°24'0 0.0
2017-Jan-19 23:33N 41°49' W 071°24'7 6.7
2017-Jan-19 22:33N 41°43' W 071°20'6 0.2
2017-Jan-18 18:11N 41°38' W 071°16'4 6.9
2017-Jan-18 17:33N 41°42' W 071°19'8 3.9
2017-Jan-18 15:28N 41°49' W 071°24'2 0.1
2017-Jan-18 01:27N 41°47' W 071°23'1 0.1
2017-Jan-17 18:33N 41°48' W 071°23'1 1.0
2017-Jan-17 17:33N 41°47' W 071°22'2 2.3
2017-Jan-17 16:32N 41°49' W 071°24'0 0.0
2017-Jan-17 15:32N 41°49' W 071°24'0 0.0
2017-Jan-17 14:33N 41°49' W 071°24'0 0.0
2017-Jan-17 13:33N 41°49' W 071°24'0 0.1
2017-Jan-17 12:30N 41°49' W 071°24'0 0.1
2017-Jan-17 11:33N 41°49' W 071°24'0 0.0
2017-Jan-17 10:33N 41°49' W 071°24'0 0.0
2017-Jan-17 09:33N 41°49' W 071°24'0 0.0
2017-Jan-17 08:33N 41°49' W 071°24'0 0.0
2017-Jan-17 07:33N 41°49' W 071°24'0 0.0
2017-Jan-17 06:33N 41°49' W 071°24'0 0.0
2017-Jan-17 05:34N 41°49' W 071°24'0 0.0
2017-Jan-17 04:33N 41°49' W 071°24'0 0.0
2017-Jan-17 03:32N 41°49' W 071°24'0 0.0
2017-Jan-17 02:33N 41°49' W 071°24'0 0.0
2017-Jan-17 01:31N 41°49' W 071°24'2 2.4
2017-Jan-17 00:33N 41°47' W 071°22'1 0.7
2017-Jan-16 23:33N 41°48' W 071°23'2 0.7
2017-Jan-16 21:25N 41°49' W 071°24'0 0.0
2017-Jan-16 15:14N 41°49' W 071°24'0 0.0
2017-Jan-16 13:03N 41°49' W 071°24'0 0.0
2017-Jan-16 12:32N 41°49' W 071°24'0 0.0
2017-Jan-16 11:31N 41°49' W 071°24'0 0.0
2017-Jan-16 10:33N 41°49' W 071°24'1 0.5
2017-Jan-16 09:19N 41°48' W 071°24'1 0.8
2017-Jan-16 08:33N 41°49' W 071°24'0 0.0
2017-Jan-16 07:33N 41°49' W 071°24'0 0.0
2017-Jan-16 06:33N 41°49' W 071°24'0 0.0
2017-Jan-16 05:34N 41°49' W 071°24'0 0.0
2017-Jan-16 04:31N 41°49' W 071°24'1 0.9
2017-Jan-16 03:33N 41°48' W 071°24'1 0.8
2017-Jan-16 02:33N 41°49' W 071°24'0 0.0
2017-Jan-16 01:33N 41°49' W 071°24'0 0.0
2017-Jan-16 00:33N 41°49' W 071°24'0 0.0
2017-Jan-15 23:31N 41°49' W 071°24'0 0.0
2017-Jan-15 22:31N 41°49' W 071°24'0 0.0
2017-Jan-15 21:33N 41°49' W 071°24'0 0.0
2017-Jan-15 20:29N 41°49' W 071°24'0 0.0
2017-Jan-15 19:32N 41°49' W 071°24'0 0.0
2017-Jan-15 18:33N 41°49' W 071°24'0 0.0
2017-Jan-15 17:33N 41°49' W 071°24'0 0.0
2017-Jan-15 16:31N 41°49' W 071°24'0 0.0
2017-Jan-15 11:06N 41°49' W 071°24'1 1.5
2017-Jan-15 10:34N 41°48' W 071°24'2 1.6
2017-Jan-15 09:34N 41°47' W 071°22'2 0.2
2017-Jan-14 23:11N 41°49' W 071°24'0 0.0
2017-Jan-14 22:32N 41°49' W 071°24'0 0.0
2017-Jan-14 21:33N 41°49' W 071°24'0 0.0
2017-Jan-14 20:25N 41°49' W 071°24'0 0.0
2017-Jan-14 19:28N 41°49' W 071°24'0 0.0
2017-Jan-14 18:32N 41°49' W 071°24'5 5.1
2017-Jan-14 17:33N 41°44' W 071°22'8 0.3
2017-Jan-13 11:15N 41°36' W 071°24'0 0.6
2017-Jan-13 10:33N 41°37' W 071°23'5 5.0
2017-Jan-13 09:33N 41°41' W 071°21'7 6.8
2017-Jan-13 08:29N 41°48' W 071°24'1 0.7
2017-Jan-13 07:33N 41°49' W 071°24'0 0.0
2017-Jan-13 06:33N 41°49' W 071°24'0 0.0
2017-Jan-13 05:34N 41°49' W 071°24'0 0.0
2017-Jan-13 04:25N 41°49' W 071°24'0 0.0
2017-Jan-13 03:33N 41°49' W 071°24'0 0.0
2017-Jan-13 02:33N 41°49' W 071°24'1 0.4
2017-Jan-13 00:31N 41°48' W 071°24'1 0.8
2017-Jan-12 23:33N 41°49' W 071°24'0 0.0
2017-Jan-12 20:27N 41°49' W 071°24'0 0.0
2017-Jan-12 19:33N 41°49' W 071°24'0 0.0
2017-Jan-12 18:23N 41°49' W 071°24'0 0.0
2017-Jan-12 16:28N 41°49' W 071°24'0 0.0
2017-Jan-12 15:33N 41°49' W 071°24'0 0.0
2017-Jan-12 12:32N 41°49' W 071°24'0 0.0
2017-Jan-12 11:33N 41°49' W 071°24'0 0.0
2017-Jan-12 10:26N 41°49' W 071°24'0 0.0
2017-Jan-12 02:28N 41°49' W 071°24'0 0.0
2017-Jan-11 23:09N 41°49' W 071°24'0 0.0
2017-Jan-11 18:22N 41°49' W 071°24'0 0.0
2017-Jan-11 17:33N 41°49' W 071°24'2 2.0
2017-Jan-11 16:31N 41°47' W 071°23'5 4.5
2017-Jan-11 15:27N 41°43' W 071°20'0 0.1
2017-Jan-11 14:33N 41°43' W 071°20'0 0.0
2017-Jan-11 13:33N 41°43' W 071°20'4 3.6
2017-Jan-11 12:33N 41°46' W 071°23'2 2.4
2017-Jan-11 11:32N 41°48' W 071°24'1 0.3
2017-Jan-11 08:33N 41°49' W 071°24'0 0.0
2017-Jan-11 07:33N 41°49' W 071°24'0 0.0
2017-Jan-11 06:33N 41°49' W 071°24'0 0.0
2017-Jan-11 05:32N 41°49' W 071°24'0 0.0
2017-Jan-11 04:33N 41°49' W 071°24'0 0.0
2017-Jan-11 03:33N 41°49' W 071°24'0 0.0
2017-Jan-11 02:33N 41°49' W 071°24'0 0.0
2017-Jan-11 01:33N 41°49' W 071°24'0 0.0
2017-Jan-11 00:33N 41°49' W 071°24'0 0.0
2017-Jan-10 23:31N 41°49' W 071°24'2 0.4
2017-Jan-10 20:06N 41°48' W 071°23'0 0.1
2017-Jan-10 19:15N 41°48' W 071°23'  

Dump ship's entire track history